createdAt,value
2019-03-11T00:01:10.393Z,52.61
2019-03-11T00:03:11.994Z,52.66
2019-03-11T00:05:13.616Z,52.80
2019-03-11T00:07:15.214Z,52.89
2019-03-11T00:09:16.873Z,52.85
2019-03-11T00:11:18.478Z,53.12
2019-03-11T00:13:20.099Z,53.00
2019-03-11T00:15:21.698Z,53.20
2019-03-11T00:17:23.298Z,53.21
2019-03-11T00:19:24.897Z,53.30
2019-03-11T00:21:26.504Z,53.54
2019-03-11T00:23:28.102Z,53.45
2019-03-11T00:25:29.749Z,53.66
2019-03-11T00:27:31.355Z,53.68
2019-03-11T00:29:32.971Z,53.71
2019-03-11T00:31:34.602Z,53.84
2019-03-11T00:33:36.212Z,53.89
2019-03-11T00:35:37.836Z,53.95
2019-03-11T00:37:39.448Z,54.00
2019-03-11T00:39:41.065Z,54.07
2019-03-11T00:41:42.698Z,54.08
2019-03-11T00:43:44.344Z,54.26
2019-03-11T00:45:45.945Z,54.41
2019-03-11T00:47:47.546Z,54.45
2019-03-11T00:49:49.160Z,54.54
2019-03-11T00:51:50.789Z,54.63
2019-03-11T00:53:52.398Z,54.50
2019-03-11T00:55:54.007Z,54.75
2019-03-11T00:57:55.606Z,54.86
2019-03-11T00:59:57.216Z,54.87
2019-03-11T01:01:58.845Z,54.91
2019-03-11T01:04:00.442Z,55.01
2019-03-11T01:06:02.046Z,55.16
2019-03-11T01:08:03.642Z,55.24
2019-03-11T01:10:05.232Z,55.37
2019-03-11T01:12:06.871Z,55.58
2019-03-11T01:14:08.480Z,55.63
2019-03-11T01:16:10.082Z,55.63
2019-03-11T01:18:11.681Z,55.73
2019-03-11T01:20:13.277Z,55.71
2019-03-11T01:22:14.873Z,55.79
2019-03-11T01:24:16.467Z,55.78
2019-03-11T01:26:18.077Z,55.78
2019-03-11T01:28:19.699Z,55.72
2019-03-11T01:30:21.297Z,55.78
2019-03-11T01:32:22.907Z,55.73
2019-03-11T01:34:24.552Z,55.85
2019-03-11T01:36:26.143Z,55.74
2019-03-11T01:38:27.771Z,55.69
2019-03-11T01:40:29.389Z,55.71
2019-03-11T01:42:31.002Z,55.76
2019-03-11T01:44:32.628Z,55.74
2019-03-11T01:46:34.225Z,55.83
2019-03-11T01:48:35.854Z,55.98
2019-03-11T01:50:37.444Z,56.15
2019-03-11T01:52:39.047Z,55.95
2019-03-11T01:54:40.687Z,55.98
2019-03-11T01:56:42.297Z,56.05
2019-03-11T01:58:43.893Z,55.96
2019-03-11T02:00:45.487Z,55.96
2019-03-11T02:02:47.087Z,55.96
2019-03-11T02:04:48.722Z,55.89
2019-03-11T02:06:50.318Z,55.93
2019-03-11T02:08:51.913Z,55.99
2019-03-11T02:10:53.538Z,55.94
2019-03-11T02:12:55.134Z,56.21
2019-03-11T02:14:56.738Z,56.11
2019-03-11T02:16:58.396Z,56.07
2019-03-11T02:19:00.013Z,56.05
2019-03-11T02:21:01.631Z,56.46
2019-03-11T02:23:03.226Z,56.23
2019-03-11T02:25:04.844Z,56.48
2019-03-11T02:27:06.482Z,56.44
2019-03-11T02:29:08.092Z,56.48
2019-03-11T02:31:09.709Z,56.50
2019-03-11T02:33:11.314Z,56.43
2019-03-11T02:35:12.932Z,56.61
2019-03-11T02:37:14.570Z,56.53
2019-03-11T02:39:16.189Z,56.50
2019-03-11T02:41:17.791Z,56.79
2019-03-11T02:43:19.406Z,56.76
2019-03-11T02:45:21.005Z,56.80
2019-03-11T02:47:22.770Z,56.93
2019-03-11T02:49:24.385Z,56.96
2019-03-11T02:51:25.999Z,56.89
2019-03-11T02:53:27.627Z,56.77
2019-03-11T02:55:29.223Z,56.83
2019-03-11T02:57:30.830Z,56.81
2019-03-11T02:59:32.705Z,56.84
2019-03-11T03:01:37.586Z,56.88
2019-03-11T03:03:41.088Z,56.79
2019-03-11T03:05:46.359Z,56.73
2019-03-11T03:07:47.951Z,56.69
2019-03-11T03:09:49.588Z,56.61
2019-03-11T03:11:51.176Z,56.62
2019-03-11T03:13:52.803Z,56.54
2019-03-11T03:15:54.433Z,56.64
2019-03-11T03:17:56.034Z,56.51
2019-03-11T03:19:57.672Z,56.39
2019-03-11T03:21:59.376Z,56.63
2019-03-11T03:24:01.099Z,56.82
2019-03-11T03:26:02.702Z,56.99
2019-03-11T03:28:04.429Z,57.01
2019-03-11T03:30:06.008Z,56.97
2019-03-11T03:32:07.607Z,56.96
2019-03-11T03:34:09.241Z,56.98
2019-03-11T03:36:10.841Z,57.34
2019-03-11T03:38:12.448Z,57.42
2019-03-11T03:40:14.066Z,57.42
2019-03-11T03:42:15.663Z,57.64
2019-03-11T03:44:17.252Z,57.66
2019-03-11T03:46:19.638Z,57.75
2019-03-11T03:48:20.562Z,58.09
2019-03-11T03:50:22.220Z,58.10
2019-03-11T03:52:23.832Z,58.40
2019-03-11T03:54:25.517Z,58.50
2019-03-11T03:56:27.133Z,58.47
2019-03-11T03:58:28.750Z,58.46
2019-03-11T04:00:30.360Z,58.68
2019-03-11T04:02:32.006Z,58.72
2019-03-11T04:04:33.624Z,58.61
2019-03-11T04:06:35.268Z,58.58
2019-03-11T04:08:36.885Z,58.58
2019-03-11T04:10:38.493Z,58.56
2019-03-11T04:12:40.141Z,58.18
2019-03-11T04:14:41.750Z,58.17
2019-03-11T04:16:43.388Z,58.22
2019-03-11T04:18:44.993Z,57.98
2019-03-11T04:20:46.596Z,57.92
2019-03-11T04:22:48.230Z,57.90
2019-03-11T04:24:49.878Z,57.83
2019-03-11T04:26:51.472Z,57.70
2019-03-11T04:28:53.066Z,57.66
2019-03-11T04:30:54.677Z,57.72
2019-03-11T04:32:56.288Z,57.93
2019-03-11T04:34:57.910Z,58.04
2019-03-11T04:36:59.523Z,58.18
2019-03-11T04:39:01.170Z,58.42
2019-03-11T04:41:02.770Z,58.32
2019-03-11T04:43:04.384Z,58.32
2019-03-11T04:45:06.028Z,58.27
2019-03-11T04:47:07.626Z,58.38
2019-03-11T04:49:09.253Z,58.24
2019-03-11T04:51:10.844Z,58.35
2019-03-11T04:53:12.439Z,58.11
2019-03-11T04:55:14.062Z,58.08
2019-03-11T04:57:15.652Z,57.98
2019-03-11T04:59:17.238Z,58.11
2019-03-11T05:01:18.857Z,57.93
2019-03-11T05:03:20.463Z,58.19
2019-03-11T05:05:22.105Z,58.25
2019-03-11T05:07:23.716Z,58.57
2019-03-11T05:09:25.330Z,58.80
2019-03-11T05:11:26.921Z,58.99
2019-03-11T05:13:28.518Z,58.99
2019-03-11T05:15:30.119Z,59.24
2019-03-11T05:17:31.717Z,59.36
2019-03-11T05:19:33.306Z,59.34
2019-03-11T05:21:34.905Z,59.36
2019-03-11T05:23:36.524Z,59.23
2019-03-11T05:25:38.742Z,59.00
2019-03-11T05:27:40.338Z,58.54
2019-03-11T05:29:41.956Z,58.28
2019-03-11T05:31:43.562Z,57.98
2019-03-11T05:33:45.193Z,58.13
2019-03-11T05:35:46.808Z,58.13
2019-03-11T05:37:48.405Z,58.23
2019-03-11T05:39:50.019Z,58.07
2019-03-11T05:41:51.616Z,58.13
2019-03-11T05:43:53.218Z,58.07
2019-03-11T05:45:54.805Z,58.34
2019-03-11T05:47:56.401Z,58.02
2019-03-11T05:49:58.012Z,57.88
2019-03-11T05:51:59.613Z,58.13
2019-03-11T05:54:01.223Z,58.30
2019-03-11T05:56:02.830Z,58.24
2019-03-11T05:58:04.430Z,58.25
2019-03-11T06:00:06.048Z,57.97
2019-03-11T06:02:07.632Z,58.00
2019-03-11T06:04:09.235Z,58.25
2019-03-11T06:06:10.864Z,58.00
2019-03-11T06:08:12.461Z,58.17
2019-03-11T06:10:14.061Z,58.49
2019-03-11T06:12:15.680Z,58.38
2019-03-11T06:14:17.274Z,58.26
2019-03-11T06:16:18.907Z,58.27
2019-03-11T06:18:26.252Z,58.42
2019-03-11T06:20:31.611Z,58.52
2019-03-11T06:22:33.250Z,58.60
2019-03-11T06:24:34.866Z,58.71
2019-03-11T06:26:36.779Z,58.83
2019-03-11T06:28:38.367Z,58.89
2019-03-11T06:30:39.965Z,58.99
2019-03-11T06:32:41.593Z,59.02
2019-03-11T06:34:43.194Z,59.14
2019-03-11T06:36:44.795Z,59.19
2019-03-11T06:38:46.398Z,59.21
2019-03-11T06:40:48.011Z,59.22
2019-03-11T06:42:49.656Z,59.20
2019-03-11T06:44:51.253Z,59.27
2019-03-11T06:46:52.880Z,59.25
2019-03-11T06:48:54.482Z,59.07
2019-03-11T06:50:56.093Z,59.04
2019-03-11T06:52:57.695Z,58.58
2019-03-11T06:54:59.325Z,58.67
2019-03-11T06:57:01.014Z,58.38
2019-03-11T06:59:02.687Z,58.29
2019-03-11T07:01:04.298Z,57.92
2019-03-11T07:03:05.912Z,58.12
2019-03-11T07:05:18.764Z,57.59
2019-03-11T07:07:09.203Z,57.49
2019-03-11T07:09:10.815Z,57.44
2019-03-11T07:11:12.454Z,57.46
2019-03-11T07:13:14.064Z,57.48
2019-03-11T07:15:15.716Z,57.53
2019-03-11T07:17:17.333Z,57.53
2019-03-11T07:19:18.933Z,57.37
2019-03-11T07:21:20.555Z,57.49
2019-03-11T07:23:22.158Z,57.36
2019-03-11T07:25:23.773Z,57.39
2019-03-11T07:27:27.594Z,57.35
2019-03-11T07:29:27.025Z,57.50
2019-03-11T07:31:28.656Z,57.55
2019-03-11T07:33:30.250Z,57.72
2019-03-11T07:35:31.854Z,57.72
2019-03-11T07:37:33.489Z,57.89
2019-03-11T07:39:35.104Z,58.10
2019-03-11T07:41:36.752Z,58.26
2019-03-11T07:43:38.354Z,58.31
2019-03-11T07:45:39.995Z,58.50
2019-03-11T07:47:41.626Z,58.53
2019-03-11T07:49:43.240Z,58.66
2019-03-11T07:51:44.855Z,58.75
2019-03-11T07:53:46.466Z,58.82
2019-03-11T07:55:48.080Z,58.83
2019-03-11T07:57:49.724Z,58.86
2019-03-11T07:59:51.334Z,58.85
2019-03-11T08:01:52.923Z,58.89
2019-03-11T08:03:54.537Z,58.92
2019-03-11T08:05:56.135Z,58.86
2019-03-11T08:07:57.821Z,59.03
2019-03-11T08:09:59.444Z,58.67
2019-03-11T08:12:01.092Z,58.70
2019-03-11T08:14:02.698Z,58.53
2019-03-11T08:16:04.293Z,58.26
2019-03-11T08:18:05.906Z,58.26
2019-03-11T08:20:07.528Z,57.34
2019-03-11T08:22:09.120Z,57.08
2019-03-11T08:24:10.896Z,56.46
2019-03-11T08:26:12.503Z,56.54
2019-03-11T08:28:14.152Z,56.23
2019-03-11T08:30:15.783Z,56.36
2019-03-11T08:32:17.377Z,56.23
2019-03-11T08:34:19.598Z,56.06
2019-03-11T08:36:21.212Z,56.00
2019-03-11T08:38:22.814Z,55.95
2019-03-11T08:40:24.428Z,55.92
2019-03-11T08:42:26.029Z,55.86
2019-03-11T08:44:27.625Z,55.83
2019-03-11T08:46:29.253Z,55.84
2019-03-11T08:48:30.850Z,55.83
2019-03-11T08:50:32.446Z,55.78
2019-03-11T08:52:34.088Z,55.80
2019-03-11T08:54:35.699Z,55.77
2019-03-11T08:56:37.949Z,55.85
2019-03-11T08:58:38.984Z,55.87
2019-03-11T09:00:40.582Z,55.80
2019-03-11T09:02:42.224Z,55.88
2019-03-11T09:04:43.832Z,55.91
2019-03-11T09:06:45.478Z,55.94
2019-03-11T09:08:47.387Z,55.98
2019-03-11T09:10:49.079Z,56.04
2019-03-11T09:12:50.682Z,56.17
2019-03-11T09:14:52.267Z,56.10
2019-03-11T09:16:53.874Z,56.13
2019-03-11T09:18:55.497Z,56.04
2019-03-11T09:20:57.109Z,56.05
2019-03-11T09:22:58.752Z,55.92
2019-03-11T09:25:00.354Z,55.87
2019-03-11T09:27:02.434Z,55.78
2019-03-11T09:29:04.064Z,55.62
2019-03-11T09:31:05.676Z,55.54
2019-03-11T09:33:08.433Z,55.42
2019-03-11T09:35:08.977Z,55.23
2019-03-11T09:37:10.578Z,55.04
2019-03-11T09:39:12.407Z,54.87
2019-03-11T09:41:14.020Z,54.87
2019-03-11T09:43:15.738Z,54.71
2019-03-11T09:45:17.825Z,54.61
2019-03-11T09:47:19.422Z,54.53
2019-03-11T09:49:21.075Z,54.41
2019-03-11T09:51:22.661Z,54.39
2019-03-11T09:53:24.263Z,54.37
2019-03-11T09:55:25.848Z,54.38
2019-03-11T09:57:27.452Z,54.39
2019-03-11T09:59:29.068Z,54.42
2019-03-11T10:01:31.156Z,54.41
2019-03-11T10:03:32.753Z,54.43
2019-03-11T10:05:34.364Z,54.33
2019-03-11T10:07:35.998Z,54.30
2019-03-11T10:09:37.594Z,54.17
2019-03-11T10:11:39.226Z,54.38
2019-03-11T10:13:40.836Z,53.70
2019-03-11T10:15:42.459Z,53.52
2019-03-11T10:17:44.103Z,53.43
2019-03-11T10:19:45.706Z,53.30
2019-03-11T10:21:47.366Z,53.26
2019-03-11T10:23:48.981Z,43.67
2019-03-11T10:25:50.585Z,42.73
2019-03-11T10:27:52.350Z,42.57
2019-03-11T10:29:53.945Z,43.43
2019-03-11T10:31:55.541Z,43.27
2019-03-11T10:33:57.166Z,43.93
2019-03-11T10:35:58.776Z,44.80
2019-03-11T10:38:00.537Z,44.94
2019-03-11T10:40:02.144Z,45.56
2019-03-11T10:42:03.738Z,46.05
2019-03-11T10:44:05.420Z,46.58
2019-03-11T10:46:08.161Z,46.40
2019-03-11T10:48:09.874Z,46.03
2019-03-11T10:50:12.783Z,46.22
2019-03-11T10:52:14.590Z,46.85
2019-03-11T10:54:16.286Z,47.29
2019-03-11T10:56:17.900Z,46.90
2019-03-11T10:58:19.498Z,47.53
2019-03-11T11:00:21.144Z,48.09
2019-03-11T11:02:22.757Z,47.84
2019-03-11T11:04:24.369Z,48.30
2019-03-11T11:06:25.980Z,48.12
2019-03-11T11:08:27.588Z,47.96
2019-03-11T11:10:29.225Z,48.26
2019-03-11T11:12:31.344Z,48.70
2019-03-11T11:14:32.942Z,49.33
2019-03-11T11:16:34.547Z,50.06
2019-03-11T11:18:36.146Z,50.47
2019-03-11T11:20:37.744Z,50.75
2019-03-11T11:22:39.347Z,51.12
2019-03-11T11:24:40.947Z,51.38
2019-03-11T11:26:42.560Z,51.07
2019-03-11T11:28:44.176Z,50.49
2019-03-11T11:30:45.800Z,50.44
2019-03-11T11:32:47.464Z,50.41
2019-03-11T11:34:49.103Z,50.67
2019-03-11T11:36:50.706Z,51.53
2019-03-11T11:38:52.307Z,52.14
2019-03-11T11:40:53.912Z,52.30
2019-03-11T11:42:55.528Z,52.17
2019-03-11T11:44:57.113Z,52.65
2019-03-11T11:46:58.710Z,53.03
2019-03-11T11:49:00.397Z,53.24
2019-03-11T11:51:01.990Z,53.34
2019-03-11T11:53:03.605Z,53.75
2019-03-11T11:55:05.202Z,54.16
2019-03-11T11:57:07.266Z,53.83
2019-03-11T11:59:08.895Z,53.94
2019-03-11T12:01:10.511Z,53.90
2019-03-11T12:03:12.119Z,52.98
2019-03-11T12:05:13.716Z,52.61
2019-03-11T12:07:15.327Z,52.36
2019-03-11T12:09:16.950Z,53.00
2019-03-11T12:11:18.566Z,53.02
2019-03-11T12:13:20.171Z,53.37
2019-03-11T12:15:21.766Z,53.31
2019-03-11T12:17:23.647Z,53.42
2019-03-11T12:19:25.096Z,52.67
2019-03-11T12:21:26.814Z,51.81
2019-03-11T12:23:28.472Z,51.33
2019-03-11T12:25:30.077Z,51.28
2019-03-11T12:27:31.724Z,51.41
2019-03-11T12:29:33.334Z,51.14
2019-03-11T12:31:34.985Z,51.59
2019-03-11T12:33:36.622Z,52.24
2019-03-11T12:35:38.411Z,52.52
2019-03-11T12:37:40.041Z,52.50
2019-03-11T12:39:41.644Z,52.54
2019-03-11T12:41:43.236Z,52.58
2019-03-11T12:43:44.834Z,52.66
2019-03-11T12:45:46.444Z,52.71
2019-03-11T12:47:48.074Z,52.55
2019-03-11T12:49:49.683Z,52.55
2019-03-11T12:51:51.337Z,52.37
2019-03-11T12:53:53.142Z,52.29
2019-03-11T12:55:54.866Z,52.32
2019-03-11T12:57:56.481Z,52.32
2019-03-11T12:59:58.169Z,52.57
2019-03-11T13:01:59.810Z,52.54
2019-03-11T13:04:01.411Z,52.93
2019-03-11T13:06:03.006Z,53.18
2019-03-11T13:08:04.603Z,53.54
2019-03-11T13:10:06.234Z,53.84
2019-03-11T13:12:08.120Z,53.71
2019-03-11T13:14:09.727Z,54.31
2019-03-11T13:16:11.336Z,54.59
2019-03-11T13:18:12.949Z,54.70
2019-03-11T13:20:14.557Z,54.53
2019-03-11T13:22:16.190Z,54.96
2019-03-11T13:24:17.791Z,54.91
2019-03-11T13:26:19.390Z,54.94
2019-03-11T13:28:20.988Z,55.10
2019-03-11T13:30:22.615Z,54.99
2019-03-11T13:32:26.927Z,55.08
2019-03-11T13:34:26.097Z,55.09
2019-03-11T13:36:27.796Z,54.96
2019-03-11T13:38:29.451Z,54.93
2019-03-11T13:40:31.121Z,54.90
2019-03-11T13:42:32.744Z,54.96
2019-03-11T13:44:34.343Z,55.01
2019-03-11T13:46:35.942Z,55.02
2019-03-11T13:48:37.614Z,55.10
2019-03-11T13:50:39.223Z,55.17
2019-03-11T13:52:40.854Z,55.23
2019-03-11T13:54:42.437Z,55.24
2019-03-11T13:56:44.066Z,54.74
2019-03-11T13:58:45.705Z,54.78
2019-03-11T14:00:56.200Z,54.67
2019-03-11T14:02:48.993Z,54.51
2019-03-11T14:04:50.594Z,54.49
2019-03-11T14:06:52.190Z,54.08
2019-03-11T14:08:53.792Z,54.23
2019-03-11T14:10:55.663Z,54.11
2019-03-11T14:12:57.261Z,53.43
2019-03-11T14:14:58.911Z,53.51
2019-03-11T14:17:00.680Z,53.49
2019-03-11T14:19:02.398Z,53.52
2019-03-11T14:21:04.012Z,53.58
2019-03-11T14:23:05.609Z,53.25
2019-03-11T14:25:07.210Z,53.32
2019-03-11T14:27:08.837Z,53.38
2019-03-11T14:29:10.487Z,53.78
2019-03-11T14:31:12.129Z,53.95
2019-03-11T14:33:13.762Z,54.07
2019-03-11T14:35:15.369Z,54.35
2019-03-11T14:37:16.998Z,54.49
2019-03-11T14:39:18.604Z,54.40
2019-03-11T14:41:20.201Z,54.32
2019-03-11T14:43:21.784Z,54.27
2019-03-11T14:45:23.401Z,54.46
2019-03-11T14:47:25.013Z,54.61
2019-03-11T14:49:26.614Z,55.23
2019-03-11T14:51:28.225Z,55.61
2019-03-11T14:53:29.827Z,55.95
2019-03-11T14:55:31.508Z,55.52
2019-03-11T14:57:33.286Z,55.47
2019-03-11T14:59:34.928Z,55.28
2019-03-11T15:01:36.632Z,55.52
2019-03-11T15:03:38.279Z,55.82
2019-03-11T15:05:39.893Z,55.87
2019-03-11T15:07:41.540Z,55.76
2019-03-11T15:09:50.968Z,55.82
2019-03-11T15:11:44.840Z,55.84
2019-03-11T15:13:46.432Z,55.77
2019-03-11T15:15:48.034Z,55.67
2019-03-11T15:17:49.638Z,55.43
2019-03-11T15:19:51.235Z,55.47
2019-03-11T15:21:52.830Z,55.43
2019-03-11T15:23:54.462Z,55.46
2019-03-11T15:25:56.062Z,55.47
2019-03-11T15:27:57.658Z,55.56
2019-03-11T15:29:59.344Z,54.83
2019-03-11T15:32:01.107Z,54.39
2019-03-11T15:34:02.752Z,54.00
2019-03-11T15:36:04.340Z,53.41
2019-03-11T15:38:05.933Z,53.41
2019-03-11T15:40:07.576Z,53.31
2019-03-11T15:42:09.225Z,53.63
2019-03-11T15:44:10.868Z,53.72
2019-03-11T15:46:12.584Z,53.65
2019-03-11T15:48:14.218Z,53.29
2019-03-11T15:50:15.861Z,53.70
2019-03-11T15:52:17.497Z,53.36
2019-03-11T15:54:19.248Z,53.90
2019-03-11T15:56:21.464Z,53.69
2019-03-11T15:58:23.061Z,54.00
2019-03-11T16:00:24.687Z,54.29
2019-03-11T16:02:26.295Z,54.20
2019-03-11T16:04:27.934Z,54.72
2019-03-11T16:06:29.525Z,54.83
2019-03-11T16:08:31.118Z,54.92
2019-03-11T16:10:32.709Z,54.89
2019-03-11T16:12:34.316Z,54.84
2019-03-11T16:14:35.960Z,54.71
2019-03-11T16:16:37.576Z,55.52
2019-03-11T16:18:39.174Z,54.96
2019-03-11T16:20:40.793Z,55.20
2019-03-11T16:22:42.484Z,55.60
2019-03-11T16:24:44.289Z,55.97
2019-03-11T16:26:45.899Z,55.70
2019-03-11T16:28:48.242Z,54.60
2019-03-11T16:30:49.159Z,55.33
2019-03-11T16:33:00.476Z,55.19
2019-03-11T16:34:52.503Z,54.77
2019-03-11T16:36:54.165Z,54.50
2019-03-11T16:38:55.755Z,54.05
2019-03-11T16:40:57.364Z,48.77
2019-03-11T16:42:58.961Z,48.73
2019-03-11T16:45:00.598Z,50.98
2019-03-11T16:47:02.211Z,51.53
2019-03-11T16:49:03.859Z,52.11
2019-03-11T16:51:05.454Z,51.57
2019-03-11T16:53:07.065Z,52.15
2019-03-11T16:55:08.704Z,52.32
2019-03-11T16:57:10.311Z,53.01
2019-03-11T16:59:11.952Z,53.20
2019-03-11T17:01:13.555Z,53.28
2019-03-11T17:03:15.641Z,53.50
2019-03-11T17:05:17.237Z,53.54
2019-03-11T17:07:18.871Z,53.30
2019-03-11T17:09:20.514Z,53.38
2019-03-11T17:11:22.112Z,53.96
2019-03-11T17:13:23.729Z,54.37
2019-03-11T17:15:25.324Z,53.58
2019-03-11T17:17:26.940Z,54.10
2019-03-11T17:19:28.548Z,53.83
2019-03-11T17:21:30.150Z,54.91
2019-03-11T17:23:31.740Z,54.55
2019-03-11T17:25:33.334Z,52.72
2019-03-11T17:27:34.964Z,52.79
2019-03-11T17:29:36.566Z,52.62
2019-03-11T17:31:38.223Z,53.33
2019-03-11T17:33:39.845Z,52.08
2019-03-11T17:35:41.540Z,51.24
2019-03-11T17:37:43.347Z,51.28
2019-03-11T17:39:45.185Z,51.79
2019-03-11T17:41:46.832Z,52.19
2019-03-11T17:43:48.445Z,53.11
2019-03-11T17:45:50.060Z,53.75
2019-03-11T17:47:51.665Z,54.06
2019-03-11T17:49:53.263Z,54.23
2019-03-11T17:51:54.897Z,54.49
2019-03-11T17:53:56.510Z,54.83
2019-03-11T17:55:58.105Z,54.75
2019-03-11T17:57:59.711Z,54.58
2019-03-11T18:00:01.324Z,54.32
2019-03-11T18:02:03.319Z,54.12
2019-03-11T18:04:04.913Z,53.91
2019-03-11T18:06:11.464Z,53.57
2019-03-11T18:08:08.306Z,53.29
2019-03-11T18:10:09.912Z,53.06
2019-03-11T18:12:11.611Z,52.96
2019-03-11T18:14:13.346Z,52.71
2019-03-11T18:16:15.143Z,52.89
2019-03-11T18:18:16.753Z,52.92
2019-03-11T18:20:18.433Z,52.91
2019-03-11T18:22:20.052Z,52.87
2019-03-11T18:24:21.688Z,52.86
2019-03-11T18:26:23.332Z,52.86
2019-03-11T18:28:24.911Z,52.84
2019-03-11T18:30:26.505Z,52.95
2019-03-11T18:32:28.741Z,53.03
2019-03-11T18:34:30.382Z,53.10
2019-03-11T18:36:32.006Z,53.17
2019-03-11T18:38:33.704Z,53.24
2019-03-11T18:40:35.310Z,53.31
2019-03-11T18:42:36.933Z,53.33
2019-03-11T18:44:38.660Z,53.39
2019-03-11T18:46:40.259Z,53.57
2019-03-11T18:48:41.939Z,52.84
2019-03-11T18:50:43.614Z,52.74
2019-03-11T18:52:45.455Z,52.83
2019-03-11T18:54:57.089Z,52.25
2019-03-11T18:56:59.176Z,52.81
2019-03-11T18:59:00.836Z,52.96
2019-03-11T19:01:02.471Z,54.23
2019-03-11T19:03:04.075Z,53.27
2019-03-11T19:05:05.734Z,53.18
2019-03-11T19:07:07.358Z,52.57
2019-03-11T19:09:09.004Z,52.46
2019-03-11T19:11:10.620Z,52.60
2019-03-11T19:13:12.276Z,52.43
2019-03-11T19:15:14.341Z,52.62
2019-03-11T19:17:15.994Z,52.50
2019-03-11T19:19:17.627Z,52.79
2019-03-11T19:21:19.268Z,52.72
2019-03-11T19:23:20.927Z,52.26
2019-03-11T19:25:22.626Z,52.25
2019-03-11T19:27:24.257Z,52.29
2019-03-11T19:29:25.880Z,52.42
2019-03-11T19:31:27.477Z,52.45
2019-03-11T19:33:29.111Z,52.58
2019-03-11T19:35:30.796Z,52.74
2019-03-11T19:37:32.408Z,52.78
2019-03-11T19:39:34.033Z,52.81
2019-03-11T19:41:35.871Z,52.54
2019-03-11T19:43:37.583Z,53.14
2019-03-11T19:45:39.234Z,52.98
2019-03-11T19:47:40.855Z,52.86
2019-03-11T19:49:42.744Z,52.69
2019-03-11T19:51:44.411Z,52.72
2019-03-11T19:53:46.025Z,53.13
2019-03-11T19:55:47.779Z,54.41
2019-03-11T19:57:49.307Z,52.63
2019-03-11T19:59:50.961Z,52.68
2019-03-11T20:01:52.639Z,52.74
2019-03-11T20:03:54.316Z,53.18
2019-03-11T20:05:55.949Z,52.96
2019-03-11T20:07:57.550Z,53.34
2019-03-11T20:09:59.195Z,52.99
2019-03-11T20:12:00.812Z,52.82
2019-03-11T20:14:02.462Z,52.93
2019-03-11T20:16:04.084Z,53.00
2019-03-11T20:18:05.753Z,52.91
2019-03-11T20:20:07.373Z,53.14
2019-03-11T20:22:09.023Z,52.51
2019-03-11T20:24:10.792Z,52.98
2019-03-11T20:26:12.632Z,52.64
2019-03-11T20:28:14.287Z,52.96
2019-03-11T20:30:15.914Z,52.98
2019-03-11T20:32:17.551Z,53.21
2019-03-11T20:34:19.197Z,53.18
2019-03-11T20:36:21.610Z,53.06
2019-03-11T20:38:22.484Z,52.90
2019-03-11T20:40:24.127Z,53.24
2019-03-11T20:42:25.770Z,53.76
2019-03-11T20:44:27.445Z,53.81
2019-03-11T20:46:29.101Z,54.06
2019-03-11T20:48:30.752Z,54.02
2019-03-11T20:50:41.456Z,54.08
2019-03-11T20:52:34.032Z,54.09
2019-03-11T20:54:35.702Z,54.01
2019-03-11T20:56:37.314Z,54.02
2019-03-11T20:58:38.955Z,54.10
2019-03-11T21:00:40.818Z,54.06
2019-03-11T21:02:42.374Z,54.15
2019-03-11T21:04:44.163Z,54.05
2019-03-11T21:06:45.850Z,53.79
2019-03-11T21:08:47.557Z,53.19
2019-03-11T21:10:49.140Z,53.64
2019-03-11T21:12:50.783Z,53.50
2019-03-11T21:14:52.458Z,53.81
2019-03-11T21:16:54.141Z,53.60
2019-03-11T21:18:55.809Z,53.69
2019-03-11T21:21:04.817Z,53.20
2019-03-11T21:22:59.080Z,53.53
2019-03-11T21:25:00.769Z,53.66
2019-03-11T21:27:02.493Z,53.77
2019-03-11T21:29:04.121Z,53.91
2019-03-11T21:31:05.707Z,53.83
2019-03-11T21:33:07.337Z,53.88
2019-03-11T21:35:08.959Z,53.99
2019-03-11T21:37:10.658Z,53.97
2019-03-11T21:39:12.305Z,53.88
2019-03-11T21:41:14.099Z,53.94
2019-03-11T21:43:15.671Z,54.08
2019-03-11T21:45:17.576Z,54.10
2019-03-11T21:47:19.197Z,49.93
2019-03-11T21:49:20.841Z,39.72
2019-03-11T21:51:22.456Z,39.85
2019-03-11T21:53:24.072Z,39.99
2019-03-11T21:55:25.732Z,42.55
2019-03-11T21:57:27.330Z,43.08
2019-03-11T21:59:28.990Z,43.18
2019-03-11T22:01:30.616Z,44.07
2019-03-11T22:03:32.215Z,44.71
2019-03-11T22:05:33.816Z,45.30
2019-03-11T22:07:35.436Z,45.88
2019-03-11T22:09:37.062Z,46.39
2019-03-11T22:11:38.654Z,46.73
2019-03-11T22:13:40.315Z,47.01
2019-03-11T22:15:41.914Z,47.45
2019-03-11T22:17:43.587Z,47.63
2019-03-11T22:19:45.239Z,48.18
2019-03-11T22:21:47.409Z,48.47
2019-03-11T22:23:48.999Z,48.64
2019-03-11T22:25:50.598Z,48.89
2019-03-11T22:27:52.212Z,48.94
2019-03-11T22:29:53.846Z,49.17
2019-03-11T22:31:55.454Z,49.49
2019-03-11T22:33:57.170Z,49.66
2019-03-11T22:35:58.750Z,49.76
2019-03-11T22:38:00.366Z,49.97
2019-03-11T22:40:02.004Z,49.98
2019-03-11T22:42:03.592Z,50.22
2019-03-11T22:44:05.236Z,50.29
2019-03-11T22:46:06.824Z,50.43
2019-03-11T22:48:08.659Z,50.69
2019-03-11T22:50:10.261Z,50.74
2019-03-11T22:52:11.863Z,51.01
2019-03-11T22:54:13.617Z,51.17
2019-03-11T22:56:15.357Z,51.35
2019-03-11T22:58:16.965Z,51.48
2019-03-11T23:00:18.617Z,51.54
2019-03-11T23:02:20.232Z,51.86
2019-03-11T23:04:21.852Z,51.80
2019-03-11T23:06:23.450Z,51.95
2019-03-11T23:08:25.079Z,52.03
2019-03-11T23:10:26.714Z,52.17
2019-03-11T23:12:28.309Z,52.25
2019-03-11T23:14:29.903Z,52.39
2019-03-11T23:16:31.534Z,52.59
2019-03-11T23:18:33.140Z,52.81
2019-03-11T23:20:34.734Z,52.91
2019-03-11T23:22:36.366Z,53.04
2019-03-11T23:24:37.962Z,53.17
2019-03-11T23:26:39.568Z,53.26
2019-03-11T23:28:41.162Z,53.75
2019-03-11T23:30:42.772Z,53.73
2019-03-11T23:32:44.382Z,53.81
2019-03-11T23:34:45.995Z,54.20
2019-03-11T23:36:47.804Z,54.18
2019-03-11T23:38:49.424Z,54.38
2019-03-11T23:40:51.023Z,54.23
2019-03-11T23:42:52.604Z,54.44
2019-03-11T23:44:54.213Z,53.99
2019-03-11T23:46:55.848Z,54.14
2019-03-11T23:48:57.451Z,54.14
2019-03-11T23:50:59.219Z,54.14
2019-03-11T23:53:00.821Z,54.17
2019-03-11T23:55:02.652Z,54.18
2019-03-11T23:57:04.280Z,54.52
2019-03-11T23:59:05.874Z,54.50
